sensor_id;sensor_type;location;lat;lon;timestamp;pressure;altitude;pressure_sealevel;temperature
14851;BMP180;7517;48.400;11.770;2023-07-29T00:00:17;96174.00;;;22.80
14851;BMP180;7517;48.400;11.770;2023-07-29T00:02:45;96177.00;;;22.80
14851;BMP180;7517;48.400;11.770;2023-07-29T00:05:15;96178.00;;;22.80
14851;BMP180;7517;48.400;11.770;2023-07-29T00:07:45;96177.00;;;22.70
14851;BMP180;7517;48.400;11.770;2023-07-29T00:10:12;96170.00;;;22.70
14851;BMP180;7517;48.400;11.770;2023-07-29T00:12:40;96174.00;;;22.70
14851;BMP180;7517;48.400;11.770;2023-07-29T00:15:08;96170.00;;;22.70
14851;BMP180;7517;48.400;11.770;2023-07-29T00:17:35;96176.00;;;22.70
14851;BMP180;7517;48.400;11.770;2023-07-29T00:20:04;96176.00;;;22.70
14851;BMP180;7517;48.400;11.770;2023-07-29T00:22:33;96170.00;;;22.60
14851;BMP180;7517;48.400;11.770;2023-07-29T00:25:00;96167.00;;;22.60
14851;BMP180;7517;48.400;11.770;2023-07-29T00:27:27;96170.00;;;22.60
14851;BMP180;7517;48.400;11.770;2023-07-29T00:29:55;96168.00;;;22.60
14851;BMP180;7517;48.400;11.770;2023-07-29T00:32:22;96170.00;;;22.60
14851;BMP180;7517;48.400;11.770;2023-07-29T00:34:49;96175.00;;;22.60
14851;BMP180;7517;48.400;11.770;2023-07-29T00:37:17;96175.00;;;22.60
14851;BMP180;7517;48.400;11.770;2023-07-29T00:39:45;96167.00;;;22.60
14851;BMP180;7517;48.400;11.770;2023-07-29T00:42:12;96169.00;;;22.60
14851;BMP180;7517;48.400;11.770;2023-07-29T00:44:40;96172.00;;;22.60
14851;BMP180;7517;48.400;11.770;2023-07-29T00:47:07;96175.00;;;22.50
14851;BMP180;7517;48.400;11.770;2023-07-29T00:49:35;96177.00;;;22.50
14851;BMP180;7517;48.400;11.770;2023-07-29T00:52:03;96179.00;;;22.50
14851;BMP180;7517;48.400;11.770;2023-07-29T00:54:30;96176.00;;;22.50
14851;BMP180;7517;48.400;11.770;2023-07-29T00:56:59;96173.00;;;22.50
14851;BMP180;7517;48.400;11.770;2023-07-29T00:59:26;96173.00;;;22.40
14851;BMP180;7517;48.400;11.770;2023-07-29T01:01:56;96158.00;;;22.40
14851;BMP180;7517;48.400;11.770;2023-07-29T01:04:23;96159.00;;;22.30
14851;BMP180;7517;48.400;11.770;2023-07-29T01:06:58;96156.00;;;22.30
14851;BMP180;7517;48.400;11.770;2023-07-29T01:09:36;96152.00;;;22.30
14851;BMP180;7517;48.400;11.770;2023-07-29T01:12:18;96152.00;;;22.20
14851;BMP180;7517;48.400;11.770;2023-07-29T01:15:01;96152.00;;;22.20
14851;BMP180;7517;48.400;11.770;2023-07-29T01:17:38;96157.00;;;22.10
14851;BMP180;7517;48.400;11.770;2023-07-29T01:20:09;96144.00;;;22.10
14851;BMP180;7517;48.400;11.770;2023-07-29T01:22:38;96144.00;;;22.00
14851;BMP180;7517;48.400;11.770;2023-07-29T01:25:08;96151.00;;;22.00
14851;BMP180;7517;48.400;11.770;2023-07-29T01:27:36;96150.00;;;22.00
14851;BMP180;7517;48.400;11.770;2023-07-29T01:30:05;96149.00;;;21.90
14851;BMP180;7517;48.400;11.770;2023-07-29T01:32:40;96142.00;;;21.90
14851;BMP180;7517;48.400;11.770;2023-07-29T01:35:21;96139.00;;;21.80
14851;BMP180;7517;48.400;11.770;2023-07-29T01:37:55;96142.00;;;21.80
14851;BMP180;7517;48.400;11.770;2023-07-29T01:40:27;96151.00;;;21.70
14851;BMP180;7517;48.400;11.770;2023-07-29T01:42:56;96148.00;;;21.70
14851;BMP180;7517;48.400;11.770;2023-07-29T01:45:24;96143.00;;;21.70
14851;BMP180;7517;48.400;11.770;2023-07-29T01:47:51;96142.00;;;21.60
14851;BMP180;7517;48.400;11.770;2023-07-29T01:50:19;96133.00;;;21.60
14851;BMP180;7517;48.400;11.770;2023-07-29T01:52:46;96131.00;;;21.50
14851;BMP180;7517;48.400;11.770;2023-07-29T01:55:14;96128.00;;;21.50
14851;BMP180;7517;48.400;11.770;2023-07-29T01:57:42;96136.00;;;21.40
14851;BMP180;7517;48.400;11.770;2023-07-29T02:00:13;96137.00;;;21.40
14851;BMP180;7517;48.400;11.770;2023-07-29T02:02:41;96135.00;;;21.40
14851;BMP180;7517;48.400;11.770;2023-07-29T02:05:08;96135.00;;;21.30
14851;BMP180;7517;48.400;11.770;2023-07-29T02:07:35;96128.00;;;21.30
14851;BMP180;7517;48.400;11.770;2023-07-29T02:10:04;96128.00;;;21.30
14851;BMP180;7517;48.400;11.770;2023-07-29T02:12:31;96134.00;;;21.20
14851;BMP180;7517;48.400;11.770;2023-07-29T02:15:00;96135.00;;;21.20
14851;BMP180;7517;48.400;11.770;2023-07-29T02:17:27;96130.00;;;21.20
14851;BMP180;7517;48.400;11.770;2023-07-29T02:19:54;96125.00;;;21.10
14851;BMP180;7517;48.400;11.770;2023-07-29T02:22:21;96120.00;;;21.10
14851;BMP180;7517;48.400;11.770;2023-07-29T02:24:49;96125.00;;;21.10
14851;BMP180;7517;48.400;11.770;2023-07-29T02:27:16;96126.00;;;21.00
14851;BMP180;7517;48.400;11.770;2023-07-29T02:29:43;96125.00;;;21.00
14851;BMP180;7517;48.400;11.770;2023-07-29T02:32:12;96114.00;;;21.00
14851;BMP180;7517;48.400;11.770;2023-07-29T02:34:39;96120.00;;;20.90
14851;BMP180;7517;48.400;11.770;2023-07-29T02:37:08;96116.00;;;20.90
14851;BMP180;7517;48.400;11.770;2023-07-29T02:39:35;96114.00;;;20.90
14851;BMP180;7517;48.400;11.770;2023-07-29T02:42:03;96114.00;;;20.90
14851;BMP180;7517;48.400;11.770;2023-07-29T02:44:31;96117.00;;;20.80
14851;BMP180;7517;48.400;11.770;2023-07-29T02:46:58;96121.00;;;20.80
14851;BMP180;7517;48.400;11.770;2023-07-29T02:49:27;96116.00;;;20.80
14851;BMP180;7517;48.400;11.770;2023-07-29T02:51:54;96117.00;;;20.80
14851;BMP180;7517;48.400;11.770;2023-07-29T02:54:21;96118.00;;;20.80
14851;BMP180;7517;48.400;11.770;2023-07-29T02:56:50;96117.00;;;20.70
14851;BMP180;7517;48.400;11.770;2023-07-29T02:59:18;96116.00;;;20.70
14851;BMP180;7517;48.400;11.770;2023-07-29T03:01:45;96123.00;;;20.70
14851;BMP180;7517;48.400;11.770;2023-07-29T03:04:13;96119.00;;;20.70
14851;BMP180;7517;48.400;11.770;2023-07-29T03:06:41;96123.00;;;20.70
14851;BMP180;7517;48.400;11.770;2023-07-29T03:09:09;96127.00;;;20.60
14851;BMP180;7517;48.400;11.770;2023-07-29T03:11:36;96124.00;;;20.60
14851;BMP180;7517;48.400;11.770;2023-07-29T03:14:03;96119.00;;;20.60
14851;BMP180;7517;48.400;11.770;2023-07-29T03:16:30;96123.00;;;20.60
14851;BMP180;7517;48.400;11.770;2023-07-29T03:18:58;96119.00;;;20.60
14851;BMP180;7517;48.400;11.770;2023-07-29T03:21:26;96112.00;;;20.60
14851;BMP180;7517;48.400;11.770;2023-07-29T03:23:55;96108.00;;;20.60
14851;BMP180;7517;48.400;11.770;2023-07-29T03:26:22;96096.00;;;20.60
14851;BMP180;7517;48.400;11.770;2023-07-29T03:28:49;96099.00;;;20.60
14851;BMP180;7517;48.400;11.770;2023-07-29T03:31:16;96110.00;;;20.60
14851;BMP180;7517;48.400;11.770;2023-07-29T03:33:44;96100.00;;;20.60
14851;BMP180;7517;48.400;11.770;2023-07-29T03:36:11;96099.00;;;20.50
14851;BMP180;7517;48.400;11.770;2023-07-29T03:38:39;96102.00;;;20.50
14851;BMP180;7517;48.400;11.770;2023-07-29T03:41:08;96106.00;;;20.50
14851;BMP180;7517;48.400;11.770;2023-07-29T03:43:36;96097.00;;;20.50
14851;BMP180;7517;48.400;11.770;2023-07-29T03:46:03;96090.00;;;20.50
14851;BMP180;7517;48.400;11.770;2023-07-29T03:48:31;96090.00;;;20.50
14851;BMP180;7517;48.400;11.770;2023-07-29T03:50:58;96097.00;;;20.50
14851;BMP180;7517;48.400;11.770;2023-07-29T03:53:25;96102.00;;;20.50
14851;BMP180;7517;48.400;11.770;2023-07-29T03:55:52;96107.00;;;20.50
14851;BMP180;7517;48.400;11.770;2023-07-29T03:58:21;96104.00;;;20.50
14851;BMP180;7517;48.400;11.770;2023-07-29T04:00:48;96106.00;;;20.50
14851;BMP180;7517;48.400;11.770;2023-07-29T04:03:15;96109.00;;;20.50
14851;BMP180;7517;48.400;11.770;2023-07-29T04:05:43;96108.00;;;20.50
14851;BMP180;7517;48.400;11.770;2023-07-29T04:08:10;96103.00;;;20.50
14851;BMP180;7517;48.400;11.770;2023-07-29T04:10:37;96100.00;;;20.50
14851;BMP180;7517;48.400;11.770;2023-07-29T04:13:04;96102.00;;;20.50
14851;BMP180;7517;48.400;11.770;2023-07-29T04:15:33;96100.00;;;20.50
14851;BMP180;7517;48.400;11.770;2023-07-29T04:18:00;96115.00;;;20.50
14851;BMP180;7517;48.400;11.770;2023-07-29T04:20:27;96115.00;;;20.50
14851;BMP180;7517;48.400;11.770;2023-07-29T04:22:54;96115.00;;;20.60
14851;BMP180;7517;48.400;11.770;2023-07-29T04:25:21;96105.00;;;20.60
14851;BMP180;7517;48.400;11.770;2023-07-29T04:27:49;96104.00;;;20.60
14851;BMP180;7517;48.400;11.770;2023-07-29T04:30:16;96108.00;;;20.70
14851;BMP180;7517;48.400;11.770;2023-07-29T04:32:45;96092.00;;;20.70
14851;BMP180;7517;48.400;11.770;2023-07-29T04:35:14;96096.00;;;20.70
14851;BMP180;7517;48.400;11.770;2023-07-29T04:37:41;96090.00;;;20.80
14851;BMP180;7517;48.400;11.770;2023-07-29T04:40:09;96077.00;;;20.80
14851;BMP180;7517;48.400;11.770;2023-07-29T04:42:37;96081.00;;;20.80
14851;BMP180;7517;48.400;11.770;2023-07-29T04:45:05;96082.00;;;20.80
14851;BMP180;7517;48.400;11.770;2023-07-29T04:47:32;96077.00;;;20.80
14851;BMP180;7517;48.400;11.770;2023-07-29T04:50:01;96069.00;;;20.80
14851;BMP180;7517;48.400;11.770;2023-07-29T04:52:28;96066.00;;;20.80
14851;BMP180;7517;48.400;11.770;2023-07-29T04:54:55;96072.00;;;20.80
14851;BMP180;7517;48.400;11.770;2023-07-29T04:57:23;96080.00;;;20.90
14851;BMP180;7517;48.400;11.770;2023-07-29T04:59:50;96083.00;;;20.90
14851;BMP180;7517;48.400;11.770;2023-07-29T05:02:17;96078.00;;;20.90
14851;BMP180;7517;48.400;11.770;2023-07-29T05:04:45;96078.00;;;20.90
14851;BMP180;7517;48.400;11.770;2023-07-29T05:07:13;96070.00;;;20.90
14851;BMP180;7517;48.400;11.770;2023-07-29T05:09:41;96069.00;;;20.90
14851;BMP180;7517;48.400;11.770;2023-07-29T05:12:08;96074.00;;;20.90
14851;BMP180;7517;48.400;11.770;2023-07-29T05:14:35;96062.00;;;20.90
14851;BMP180;7517;48.400;11.770;2023-07-29T05:17:03;96059.00;;;20.90
14851;BMP180;7517;48.400;11.770;2023-07-29T05:19:30;96063.00;;;20.90
14851;BMP180;7517;48.400;11.770;2023-07-29T05:21:58;96058.00;;;21.00
14851;BMP180;7517;48.400;11.770;2023-07-29T05:24:26;96067.00;;;21.00
14851;BMP180;7517;48.400;11.770;2023-07-29T05:26:54;96082.00;;;21.00
14851;BMP180;7517;48.400;11.770;2023-07-29T05:29:21;96081.00;;;21.00
14851;BMP180;7517;48.400;11.770;2023-07-29T05:31:48;96078.00;;;21.10
14851;BMP180;7517;48.400;11.770;2023-07-29T05:34:15;96078.00;;;21.10
14851;BMP180;7517;48.400;11.770;2023-07-29T05:36:42;96071.00;;;21.10
14851;BMP180;7517;48.400;11.770;2023-07-29T05:39:10;96068.00;;;21.20
14851;BMP180;7517;48.400;11.770;2023-07-29T05:41:39;96079.00;;;21.20
14851;BMP180;7517;48.400;11.770;2023-07-29T05:44:06;96075.00;;;21.30
14851;BMP180;7517;48.400;11.770;2023-07-29T05:46:33;96078.00;;;21.30
14851;BMP180;7517;48.400;11.770;2023-07-29T05:49:01;96078.00;;;21.40
14851;BMP180;7517;48.400;11.770;2023-07-29T05:51:28;96079.00;;;21.50
14851;BMP180;7517;48.400;11.770;2023-07-29T05:53:55;96081.00;;;21.50
14851;BMP180;7517;48.400;11.770;2023-07-29T05:56:23;96074.00;;;21.60
14851;BMP180;7517;48.400;11.770;2023-07-29T05:58:51;96078.00;;;21.60
14851;BMP180;7517;48.400;11.770;2023-07-29T06:01:18;96083.00;;;21.70
14851;BMP180;7517;48.400;11.770;2023-07-29T06:03:47;96080.00;;;21.80
14851;BMP180;7517;48.400;11.770;2023-07-29T06:06:15;96077.00;;;21.90
14851;BMP180;7517;48.400;11.770;2023-07-29T06:08:42;96086.00;;;21.90
14851;BMP180;7517;48.400;11.770;2023-07-29T06:11:09;96082.00;;;22.00
14851;BMP180;7517;48.400;11.770;2023-07-29T06:13:37;96084.00;;;22.10
14851;BMP180;7517;48.400;11.770;2023-07-29T06:16:05;96073.00;;;22.10
14851;BMP180;7517;48.400;11.770;2023-07-29T06:18:33;96078.00;;;22.20
14851;BMP180;7517;48.400;11.770;2023-07-29T06:21:00;96074.00;;;22.30
14851;BMP180;7517;48.400;11.770;2023-07-29T06:23:27;96079.00;;;22.30
14851;BMP180;7517;48.400;11.770;2023-07-29T06:25:55;96084.00;;;22.40
14851;BMP180;7517;48.400;11.770;2023-07-29T06:28:22;96093.00;;;22.40
14851;BMP180;7517;48.400;11.770;2023-07-29T06:30:49;96091.00;;;22.50
14851;BMP180;7517;48.400;11.770;2023-07-29T06:33:18;96088.00;;;22.50
14851;BMP180;7517;48.400;11.770;2023-07-29T06:35:45;96083.00;;;22.60
14851;BMP180;7517;48.400;11.770;2023-07-29T06:38:13;96082.00;;;22.60
14851;BMP180;7517;48.400;11.770;2023-07-29T06:40:40;96091.00;;;22.60
14851;BMP180;7517;48.400;11.770;2023-07-29T06:43:08;96094.00;;;22.70
14851;BMP180;7517;48.400;11.770;2023-07-29T06:45:35;96087.00;;;22.80
14851;BMP180;7517;48.400;11.770;2023-07-29T06:48:02;96089.00;;;22.80
14851;BMP180;7517;48.400;11.770;2023-07-29T06:50:31;96083.00;;;22.90
14851;BMP180;7517;48.400;11.770;2023-07-29T06:52:58;96076.00;;;23.00
14851;BMP180;7517;48.400;11.770;2023-07-29T06:55:26;96085.00;;;23.00
14851;BMP180;7517;48.400;11.770;2023-07-29T06:57:54;96096.00;;;23.10
14851;BMP180;7517;48.400;11.770;2023-07-29T07:00:21;96100.00;;;23.20
14851;BMP180;7517;48.400;11.770;2023-07-29T07:02:48;96115.00;;;23.20
14851;BMP180;7517;48.400;11.770;2023-07-29T07:05:15;96122.00;;;23.30
14851;BMP180;7517;48.400;11.770;2023-07-29T07:07:44;96145.00;;;23.30
14851;BMP180;7517;48.400;11.770;2023-07-29T07:10:11;96167.00;;;23.40
14851;BMP180;7517;48.400;11.770;2023-07-29T07:12:39;96175.00;;;23.40
14851;BMP180;7517;48.400;11.770;2023-07-29T07:15:07;96180.00;;;23.40
14851;BMP180;7517;48.400;11.770;2023-07-29T07:17:35;96178.00;;;23.50
14851;BMP180;7517;48.400;11.770;2023-07-29T07:20:03;96163.00;;;23.40
14851;BMP180;7517;48.400;11.770;2023-07-29T07:22:30;96155.00;;;23.40
14851;BMP180;7517;48.400;11.770;2023-07-29T07:24:59;96146.00;;;23.30
14851;BMP180;7517;48.400;11.770;2023-07-29T07:27:26;96141.00;;;23.30
14851;BMP180;7517;48.400;11.770;2023-07-29T07:29:53;96146.00;;;23.20
14851;BMP180;7517;48.400;11.770;2023-07-29T07:32:20;96155.00;;;23.20
14851;BMP180;7517;48.400;11.770;2023-07-29T07:34:47;96149.00;;;23.10
14851;BMP180;7517;48.400;11.770;2023-07-29T07:37:15;96136.00;;;23.10
14851;BMP180;7517;48.400;11.770;2023-07-29T07:39:42;96120.00;;;23.10
14851;BMP180;7517;48.400;11.770;2023-07-29T07:42:11;96126.00;;;23.10
14851;BMP180;7517;48.400;11.770;2023-07-29T07:44:38;96124.00;;;23.10
14851;BMP180;7517;48.400;11.770;2023-07-29T07:47:05;96110.00;;;23.10
14851;BMP180;7517;48.400;11.770;2023-07-29T07:49:32;96096.00;;;23.10
14851;BMP180;7517;48.400;11.770;2023-07-29T07:51:59;96091.00;;;23.10
14851;BMP180;7517;48.400;11.770;2023-07-29T07:54:27;96077.00;;;23.10
14851;BMP180;7517;48.400;11.770;2023-07-29T07:56:54;96078.00;;;23.10
14851;BMP180;7517;48.400;11.770;2023-07-29T07:59:22;96085.00;;;23.10
14851;BMP180;7517;48.400;11.770;2023-07-29T08:01:49;96094.00;;;23.10
14851;BMP180;7517;48.400;11.770;2023-07-29T08:04:18;96099.00;;;23.10
14851;BMP180;7517;48.400;11.770;2023-07-29T08:06:45;96107.00;;;23.20
14851;BMP180;7517;48.400;11.770;2023-07-29T08:09:12;96104.00;;;23.20
14851;BMP180;7517;48.400;11.770;2023-07-29T08:11:39;96105.00;;;23.30
14851;BMP180;7517;48.400;11.770;2023-07-29T08:14:06;96107.00;;;23.30
14851;BMP180;7517;48.400;11.770;2023-07-29T08:16:35;96098.00;;;23.30
14851;BMP180;7517;48.400;11.770;2023-07-29T08:19:02;96089.00;;;23.40
14851;BMP180;7517;48.400;11.770;2023-07-29T08:21:29;96085.00;;;23.40
14851;BMP180;7517;48.400;11.770;2023-07-29T08:23:57;96082.00;;;23.40
14851;BMP180;7517;48.400;11.770;2023-07-29T08:26:24;96091.00;;;23.40
14851;BMP180;7517;48.400;11.770;2023-07-29T08:28:51;96090.00;;;23.50
14851;BMP180;7517;48.400;11.770;2023-07-29T08:31:19;96094.00;;;23.50
14851;BMP180;7517;48.400;11.770;2023-07-29T08:33:47;96095.00;;;23.60
14851;BMP180;7517;48.400;11.770;2023-07-29T08:36:15;96094.00;;;23.60
14851;BMP180;7517;48.400;11.770;2023-07-29T08:38:42;96094.00;;;23.70
14851;BMP180;7517;48.400;11.770;2023-07-29T08:41:14;96098.00;;;23.70
14851;BMP180;7517;48.400;11.770;2023-07-29T08:43:52;96107.00;;;23.80
14851;BMP180;7517;48.400;11.770;2023-07-29T08:46:20;96111.00;;;23.80
14851;BMP180;7517;48.400;11.770;2023-07-29T08:48:50;96117.00;;;23.90
14851;BMP180;7517;48.400;11.770;2023-07-29T08:51:19;96113.00;;;23.90
14851;BMP180;7517;48.400;11.770;2023-07-29T08:53:47;96109.00;;;23.90
14851;BMP180;7517;48.400;11.770;2023-07-29T08:56:15;96111.00;;;24.00
14851;BMP180;7517;48.400;11.770;2023-07-29T08:58:43;96109.00;;;24.00
14851;BMP180;7517;48.400;11.770;2023-07-29T09:01:10;96100.00;;;24.00
14851;BMP180;7517;48.400;11.770;2023-07-29T09:03:38;96117.00;;;24.10
14851;BMP180;7517;48.400;11.770;2023-07-29T09:06:08;96114.00;;;24.10
14851;BMP180;7517;48.400;11.770;2023-07-29T09:08:35;96111.00;;;24.20
14851;BMP180;7517;48.400;11.770;2023-07-29T09:11:03;96115.00;;;24.20
14851;BMP180;7517;48.400;11.770;2023-07-29T09:13:31;96116.00;;;24.30
14851;BMP180;7517;48.400;11.770;2023-07-29T09:15:58;96103.00;;;24.40
14851;BMP180;7517;48.400;11.770;2023-07-29T09:18:27;96110.00;;;24.50
14851;BMP180;7517;48.400;11.770;2023-07-29T09:20:59;96113.00;;;24.60
14851;BMP180;7517;48.400;11.770;2023-07-29T09:23:38;96112.00;;;24.70
14851;BMP180;7517;48.400;11.770;2023-07-29T09:26:05;96117.00;;;24.80
14851;BMP180;7517;48.400;11.770;2023-07-29T09:28:36;96113.00;;;24.90
14851;BMP180;7517;48.400;11.770;2023-07-29T09:31:04;96112.00;;;25.10
14851;BMP180;7517;48.400;11.770;2023-07-29T09:33:35;96119.00;;;25.30
14851;BMP180;7517;48.400;11.770;2023-07-29T09:36:08;96112.00;;;25.40
14851;BMP180;7517;48.400;11.770;2023-07-29T09:38:38;96111.00;;;25.60
14851;BMP180;7517;48.400;11.770;2023-07-29T09:41:06;96102.00;;;25.80
14851;BMP180;7517;48.400;11.770;2023-07-29T09:43:34;96114.00;;;26.00
14851;BMP180;7517;48.400;11.770;2023-07-29T09:46:04;96105.00;;;26.10
14851;BMP180;7517;48.400;11.770;2023-07-29T09:48:36;96104.00;;;26.30
14851;BMP180;7517;48.400;11.770;2023-07-29T09:51:10;96094.00;;;26.40
14851;BMP180;7517;48.400;11.770;2023-07-29T09:53:46;96094.00;;;26.60
14851;BMP180;7517;48.400;11.770;2023-07-29T09:56:15;96093.00;;;26.70
14851;BMP180;7517;48.400;11.770;2023-07-29T09:58:44;96095.00;;;26.80
14851;BMP180;7517;48.400;11.770;2023-07-29T10:01:11;96096.00;;;26.90
14851;BMP180;7517;48.400;11.770;2023-07-29T10:03:39;96094.00;;;27.00
14851;BMP180;7517;48.400;11.770;2023-07-29T10:06:08;96098.00;;;27.10
14851;BMP180;7517;48.400;11.770;2023-07-29T10:08:35;96096.00;;;27.10
14851;BMP180;7517;48.400;11.770;2023-07-29T10:11:07;96097.00;;;27.10
14851;BMP180;7517;48.400;11.770;2023-07-29T10:13:36;96092.00;;;27.20
14851;BMP180;7517;48.400;11.770;2023-07-29T10:16:04;96088.00;;;27.20
14851;BMP180;7517;48.400;11.770;2023-07-29T10:18:33;96082.00;;;27.30
14851;BMP180;7517;48.400;11.770;2023-07-29T10:21:02;96074.00;;;27.40
14851;BMP180;7517;48.400;11.770;2023-07-29T10:23:37;96065.00;;;27.60
14851;BMP180;7517;48.400;11.770;2023-07-29T10:26:10;96070.00;;;27.70
14851;BMP180;7517;48.400;11.770;2023-07-29T10:28:41;96071.00;;;27.90
14851;BMP180;7517;48.400;11.770;2023-07-29T10:31:15;96059.00;;;28.10
14851;BMP180;7517;48.400;11.770;2023-07-29T10:33:44;96057.00;;;28.20
14851;BMP180;7517;48.400;11.770;2023-07-29T10:36:12;96041.00;;;28.30
14851;BMP180;7517;48.400;11.770;2023-07-29T10:38:40;96038.00;;;28.40
14851;BMP180;7517;48.400;11.770;2023-07-29T10:41:09;96039.00;;;28.60
14851;BMP180;7517;48.400;11.770;2023-07-29T10:43:37;96041.00;;;28.70
14851;BMP180;7517;48.400;11.770;2023-07-29T10:46:18;96071.00;;;28.80
14851;BMP180;7517;48.400;11.770;2023-07-29T10:48:54;96096.00;;;28.90
14851;BMP180;7517;48.400;11.770;2023-07-29T10:51:27;96117.00;;;28.70
14851;BMP180;7517;48.400;11.770;2023-07-29T10:53:58;96118.00;;;28.50
14851;BMP180;7517;48.400;11.770;2023-07-29T10:56:32;96107.00;;;28.30
14851;BMP180;7517;48.400;11.770;2023-07-29T10:59:38;96109.00;;;27.90
14851;BMP180;7517;48.400;11.770;2023-07-29T11:02:20;96119.00;;;27.60
14851;BMP180;7517;48.400;11.770;2023-07-29T11:04:50;96142.00;;;27.20
14851;BMP180;7517;48.400;11.770;2023-07-29T11:07:23;96135.00;;;26.70
14851;BMP180;7517;48.400;11.770;2023-07-29T11:09:58;96169.00;;;26.20
14851;BMP180;7517;48.400;11.770;2023-07-29T11:12:42;96175.00;;;25.80
14851;BMP180;7517;48.400;11.770;2023-07-29T11:15:22;96175.00;;;25.40
14851;BMP180;7517;48.400;11.770;2023-07-29T11:17:52;96149.00;;;25.00
14851;BMP180;7517;48.400;11.770;2023-07-29T11:20:22;96137.00;;;24.70
14851;BMP180;7517;48.400;11.770;2023-07-29T11:22:50;96118.00;;;24.40
14851;BMP180;7517;48.400;11.770;2023-07-29T11:25:18;96109.00;;;24.20
14851;BMP180;7517;48.400;11.770;2023-07-29T11:27:48;96105.00;;;24.00
14851;BMP180;7517;48.400;11.770;2023-07-29T11:30:17;96094.00;;;23.80
14851;BMP180;7517;48.400;11.770;2023-07-29T11:32:49;96078.00;;;23.70
14851;BMP180;7517;48.400;11.770;2023-07-29T11:35:18;96078.00;;;23.60
14851;BMP180;7517;48.400;11.770;2023-07-29T11:37:49;96082.00;;;23.50
14851;BMP180;7517;48.400;11.770;2023-07-29T11:40:19;96082.00;;;23.50
14851;BMP180;7517;48.400;11.770;2023-07-29T11:42:50;96079.00;;;23.40
14851;BMP180;7517;48.400;11.770;2023-07-29T11:45:27;96078.00;;;23.40
14851;BMP180;7517;48.400;11.770;2023-07-29T11:48:01;96074.00;;;23.40
14851;BMP180;7517;48.400;11.770;2023-07-29T11:50:42;96075.00;;;23.40
14851;BMP180;7517;48.400;11.770;2023-07-29T11:53:11;96070.00;;;23.40
14851;BMP180;7517;48.400;11.770;2023-07-29T11:55:38;96076.00;;;23.50
14851;BMP180;7517;48.400;11.770;2023-07-29T11:58:07;96078.00;;;23.50
14851;BMP180;7517;48.400;11.770;2023-07-29T12:00:34;96074.00;;;23.60
14851;BMP180;7517;48.400;11.770;2023-07-29T12:03:02;96073.00;;;23.60
14851;BMP180;7517;48.400;11.770;2023-07-29T12:05:30;96082.00;;;23.70
14851;BMP180;7517;48.400;11.770;2023-07-29T12:07:58;96077.00;;;23.70
14851;BMP180;7517;48.400;11.770;2023-07-29T12:10:26;96074.00;;;23.80
14851;BMP180;7517;48.400;11.770;2023-07-29T12:12:53;96070.00;;;23.80
14851;BMP180;7517;48.400;11.770;2023-07-29T12:15:27;96076.00;;;23.90
14851;BMP180;7517;48.400;11.770;2023-07-29T12:17:55;96072.00;;;24.00
14851;BMP180;7517;48.400;11.770;2023-07-29T12:20:23;96070.00;;;24.00
14851;BMP180;7517;48.400;11.770;2023-07-29T12:22:56;96066.00;;;24.10
14851;BMP180;7517;48.400;11.770;2023-07-29T12:25:25;96067.00;;;24.20
14851;BMP180;7517;48.400;11.770;2023-07-29T12:27:53;96058.00;;;24.30
14851;BMP180;7517;48.400;11.770;2023-07-29T12:30:24;96058.00;;;24.50
14851;BMP180;7517;48.400;11.770;2023-07-29T12:32:58;96055.00;;;24.60
14851;BMP180;7517;48.400;11.770;2023-07-29T12:35:36;96057.00;;;24.70
14851;BMP180;7517;48.400;11.770;2023-07-29T12:38:03;96056.00;;;24.80
14851;BMP180;7517;48.400;11.770;2023-07-29T12:40:31;96052.00;;;25.00
14851;BMP180;7517;48.400;11.770;2023-07-29T12:42:58;96060.00;;;25.10
14851;BMP180;7517;48.400;11.770;2023-07-29T12:45:36;96063.00;;;25.20
14851;BMP180;7517;48.400;11.770;2023-07-29T12:48:08;96061.00;;;25.30
14851;BMP180;7517;48.400;11.770;2023-07-29T12:50:36;96059.00;;;25.40
14851;BMP180;7517;48.400;11.770;2023-07-29T12:53:08;96052.00;;;25.50
14851;BMP180;7517;48.400;11.770;2023-07-29T12:55:37;96052.00;;;25.50
14851;BMP180;7517;48.400;11.770;2023-07-29T12:58:06;96046.00;;;25.60
14851;BMP180;7517;48.400;11.770;2023-07-29T13:00:39;96040.00;;;25.60
14851;BMP180;7517;48.400;11.770;2023-07-29T13:03:06;96047.00;;;25.70
14851;BMP180;7517;48.400;11.770;2023-07-29T13:05:34;96032.00;;;25.70
14851;BMP180;7517;48.400;11.770;2023-07-29T13:08:01;96037.00;;;25.80
14851;BMP180;7517;48.400;11.770;2023-07-29T13:10:31;96023.00;;;25.80
14851;BMP180;7517;48.400;11.770;2023-07-29T13:12:58;96031.00;;;25.80
14851;BMP180;7517;48.400;11.770;2023-07-29T13:15:26;96030.00;;;25.80
14851;BMP180;7517;48.400;11.770;2023-07-29T13:17:57;96030.00;;;25.90
14851;BMP180;7517;48.400;11.770;2023-07-29T13:20:24;96036.00;;;25.90
14851;BMP180;7517;48.400;11.770;2023-07-29T13:22:52;96027.00;;;25.90
14851;BMP180;7517;48.400;11.770;2023-07-29T13:25:19;96037.00;;;26.00
14851;BMP180;7517;48.400;11.770;2023-07-29T13:27:46;96040.00;;;26.00
14851;BMP180;7517;48.400;11.770;2023-07-29T13:30:15;96035.00;;;26.00
14851;BMP180;7517;48.400;11.770;2023-07-29T13:32:43;96035.00;;;26.00
14851;BMP180;7517;48.400;11.770;2023-07-29T13:35:14;96039.00;;;26.00
14851;BMP180;7517;48.400;11.770;2023-07-29T13:37:42;96038.00;;;26.00
14851;BMP180;7517;48.400;11.770;2023-07-29T13:40:09;96053.00;;;26.00
14851;BMP180;7517;48.400;11.770;2023-07-29T13:42:36;96045.00;;;26.00
14851;BMP180;7517;48.400;11.770;2023-07-29T13:45:05;96049.00;;;26.00
14851;BMP180;7517;48.400;11.770;2023-07-29T13:47:32;96051.00;;;26.10
14851;BMP180;7517;48.400;11.770;2023-07-29T13:50:00;96037.00;;;26.10
14851;BMP180;7517;48.400;11.770;2023-07-29T13:52:29;96037.00;;;26.10
14851;BMP180;7517;48.400;11.770;2023-07-29T13:54:56;96039.00;;;26.10
14851;BMP180;7517;48.400;11.770;2023-07-29T13:57:23;96041.00;;;26.20
14851;BMP180;7517;48.400;11.770;2023-07-29T13:59:54;96051.00;;;26.20
14851;BMP180;7517;48.400;11.770;2023-07-29T14:02:21;96050.00;;;26.20
14851;BMP180;7517;48.400;11.770;2023-07-29T14:04:48;96053.00;;;26.30
14851;BMP180;7517;48.400;11.770;2023-07-29T14:07:15;96054.00;;;26.30
14851;BMP180;7517;48.400;11.770;2023-07-29T14:09:45;96058.00;;;26.30
14851;BMP180;7517;48.400;11.770;2023-07-29T14:12:12;96040.00;;;26.30
14851;BMP180;7517;48.400;11.770;2023-07-29T14:14:41;96037.00;;;26.40
14851;BMP180;7517;48.400;11.770;2023-07-29T14:17:08;96025.00;;;26.40